Terminal Aerodrome Forecast
Issued by NWS

Home | Current Version | Previous Version | Text Only | Print | Product List | Glossary On
Versions: 1 2 3 4 5 6 7 8 9 10 11 12 13 14
000
FTUS43 KAPX 240520
TAFTVC
TAF
KTVC 240520Z 2406/2506 05004KT P6SM SCT060 BKN250
     FM241200 12004KT P6SM SCT060
     FM242000 16008KT P6SM FEW250
     FM250400 14008KT P6SM SCT200=

USA.gov is the U.S. government's official web portal to all federal, state and local government web resources and services.